createdAt,value
2023-05-15T00:00:25.267Z,1.59
2023-05-15T00:10:25.287Z,2.33
2023-05-15T00:20:25.349Z,2.78
2023-05-15T00:30:25.327Z,1.48
2023-05-15T00:40:26.355Z,2.49
2023-05-15T00:50:26.401Z,5.70
2023-05-15T01:00:26.379Z,2.02
2023-05-15T01:10:26.432Z,3.03
2023-05-15T01:20:26.410Z,1.92
2023-05-15T01:30:26.392Z,1.55
2023-05-15T01:40:26.497Z,3.55
2023-05-15T01:50:26.397Z,3.81
2023-05-15T02:00:26.489Z,5.34
2023-05-15T02:10:27.280Z,3.61
2023-05-15T02:20:27.946Z,3.43
2023-05-15T02:30:29.091Z,2.35
2023-05-15T02:40:29.594Z,3.25
2023-05-15T02:50:29.701Z,8.19
2023-05-15T03:00:29.680Z,30.25
2023-05-15T03:10:29.564Z,23.03
2023-05-15T03:20:29.576Z,21.21
2023-05-15T03:30:29.704Z,19.85
2023-05-15T03:40:31.472Z,16.34
2023-05-15T03:50:33.287Z,19.47
2023-05-15T04:00:33.686Z,24.12
2023-05-15T04:10:33.590Z,30.13
2023-05-15T04:20:33.625Z,42.54
2023-05-15T04:30:36.809Z,54.56
2023-05-15T04:40:36.660Z,41.94
2023-05-15T04:50:36.932Z,45.96
2023-05-15T05:00:36.714Z,50.62
2023-05-15T05:10:56.377Z,34.95
2023-05-15T05:21:00.145Z,35.01
2023-05-15T05:31:02.164Z,35.20
2023-05-15T05:41:02.801Z,43.86
2023-05-15T05:51:02.911Z,43.25
2023-05-15T06:01:03.107Z,29.25
2023-05-15T06:11:03.161Z,27.22
2023-05-15T06:21:03.900Z,43.22
2023-05-15T06:31:04.116Z,18.62
2023-05-15T06:41:05.063Z,17.23
2023-05-15T06:51:05.170Z,10.97
2023-05-15T07:01:06.148Z,14.95
2023-05-15T07:11:05.893Z,13.74
2023-05-15T07:21:07.278Z,17.21
2023-05-15T07:31:07.109Z,12.92
2023-05-15T07:41:09.157Z,22.69
2023-05-15T07:51:08.960Z,21.46
2023-05-15T08:01:08.915Z,20.41
2023-05-15T08:11:08.967Z,16.24
2023-05-15T08:21:08.934Z,16.73
2023-05-15T08:31:09.107Z,20.34
2023-05-15T08:41:08.984Z,10.58
2023-05-15T08:51:09.323Z,9.86
2023-05-15T09:01:09.048Z,8.84
2023-05-15T09:11:09.010Z,11.74
2023-05-15T09:21:09.080Z,8.28
2023-05-15T09:31:09.204Z,5.09
2023-05-15T09:41:09.161Z,6.89
2023-05-15T09:51:09.076Z,6.00
2023-05-15T10:01:09.176Z,8.10
2023-05-15T10:11:09.149Z,5.70
2023-05-15T10:21:09.161Z,6.70
2023-05-15T10:31:09.267Z,10.20
2023-05-15T10:41:17.318Z,4.60
2023-05-15T10:51:11.201Z,10.19
2023-05-15T11:01:11.951Z,9.49
2023-05-15T11:11:12.182Z,3.90
2023-05-15T11:21:12.580Z,10.99
2023-05-15T11:31:12.295Z,6.19
2023-05-15T11:41:12.313Z,5.69
2023-05-15T11:51:12.295Z,5.69
2023-05-15T12:01:12.784Z,9.18
2023-05-15T12:11:13.294Z,6.88
2023-05-15T12:21:13.553Z,4.49
2023-05-15T12:31:16.121Z,11.16
2023-05-15T12:41:16.316Z,2.49
2023-05-15T12:51:16.432Z,1.20
2023-05-15T13:01:16.947Z,2.79
2023-05-15T13:11:17.840Z,0.60
2023-05-15T13:21:18.443Z,4.08
2023-05-15T13:31:18.519Z,2.59
2023-05-15T13:41:18.524Z,13.54
2023-05-15T13:51:18.478Z,17.92
2023-05-15T14:01:18.622Z,7.36
2023-05-15T14:11:18.654Z,13.83
2023-05-15T14:21:18.471Z,13.52
2023-05-15T14:31:18.577Z,11.62
2023-05-15T14:41:18.535Z,38.13
2023-05-15T14:51:19.894Z,6.35
2023-05-15T15:01:20.615Z,7.74
2023-05-15T15:11:20.564Z,10.12
2023-05-15T15:21:20.675Z,9.02
2023-05-15T15:31:21.187Z,5.35
2023-05-15T15:41:22.848Z,7.54
2023-05-15T15:51:22.618Z,7.64
2023-05-15T16:01:22.917Z,6.35
2023-05-15T16:11:23.437Z,11.39
2023-05-15T16:21:23.713Z,12.65
2023-05-15T16:31:23.188Z,10.64
2023-05-15T16:41:23.673Z,13.78
2023-05-15T16:51:23.741Z,6.88
2023-05-15T17:01:23.770Z,12.96
2023-05-15T17:11:23.794Z,4.91
2023-05-15T17:21:23.742Z,6.28
2023-05-15T17:31:23.864Z,6.08
2023-05-15T17:41:23.834Z,21.62
2023-05-15T17:51:23.842Z,14.83
2023-05-15T18:01:23.848Z,13.24
2023-05-15T18:11:24.475Z,13.69
2023-05-15T18:21:25.190Z,9.88
2023-05-15T18:31:25.014Z,12.17
2023-05-15T18:41:26.546Z,4.72
2023-05-15T18:51:26.987Z,9.08
2023-05-15T19:01:26.944Z,5.12
2023-05-15T19:11:27.374Z,3.97
2023-05-15T19:21:28.877Z,9.96
2023-05-15T19:31:32.047Z,36.52
2023-05-15T19:41:32.994Z,3.27
2023-05-15T19:51:33.769Z,4.57
2023-05-15T20:01:33.965Z,4.38
2023-05-15T20:11:33.933Z,11.63
2023-05-15T20:21:34.047Z,2.42
2023-05-15T20:31:34.058Z,3.25
2023-05-15T20:41:34.300Z,3.62
2023-05-15T20:51:34.073Z,4.45
2023-05-15T21:01:34.233Z,3.52
2023-05-15T21:11:34.057Z,1.02
2023-05-15T21:21:34.729Z,7.87
2023-05-15T21:31:35.509Z,4.16
2023-05-15T21:41:36.155Z,12.03
2023-05-15T21:51:36.124Z,4.81
2023-05-15T22:01:36.382Z,4.43
2023-05-15T22:11:37.329Z,61.01
2023-05-15T22:21:37.177Z,2.58
2023-05-15T22:31:37.188Z,3.87
2023-05-15T22:41:37.201Z,20.39
2023-05-15T22:51:37.556Z,3.11
2023-05-15T23:01:37.283Z,10.11
2023-05-15T23:11:38.386Z,3.81
2023-05-15T23:21:38.192Z,5.51
2023-05-15T23:31:38.756Z,2.34
2023-05-15T23:41:39.234Z,1.61
2023-05-15T23:51:39.257Z,6.25
